Latest Weather Observations for Badgingarra

IDW60801

Issued at 4:23 pm WST Wednesday 24 April 2019 (issued every 10 minutes, with the page automatically refreshed every 10 minutes)

About weather observations | Map of weather stations | Latest weather observations for WA | Other Formats
Station Details ID: 009037 Name: BADGINGARRA RESEARCH STN Lat: -30.34 Lon: 115.54 Height: 275.0 m
Data from the previous 72 hours. | See also: Recent months at Badgingarra
Date/Time
WST
Temp
°C
App
Temp
°C
Dew
Point
°C
Rel
Hum
%
Delta-T
°C
Wind Press
QNH
hPa
Press
MSL
hPa
Rain since
9am
mm
Dir  Spd
km/h
Gust
km/h
Spd
kts
Gust
kts
24/04:00pm 28.3 22.5 2.5 19 12.9 E 22 33 12 18 - - 0.0
24/03:30pm 28.5 22.8 2.7 19 12.9 E 22 32 12 17 - - 0.0
24/03:00pm 28.4 22.7 2.6 19 12.9 ESE 22 33 12 18 - - 0.0
24/02:30pm 28.6 22.9 2.7 19 13.0 E 22 39 12 21 - - 0.0
24/02:00pm 28.3 22.3 3.2 20 12.7 E 24 33 13 18 - - 0.0
24/01:34pm 27.8 20.9 2.8 20 12.5 E 28 52 15 28 - - 0.0
24/01:30pm 28.3 22.7 3.2 20 12.7 E 22 52 12 28 - - 0.0
24/01:00pm 28.2 22.2 3.1 20 12.7 E 24 35 13 19 - - 0.0
24/12:30pm 27.2 20.9 3.7 22 11.9 E 26 37 14 20 - - 0.0
24/12:00pm 27.0 19.9 3.5 22 11.8 E 30 39 16 21 - - 0.0
24/11:30am 26.5 20.2 3.7 23 11.5 E 26 39 14 21 - - 0.0
24/11:00am 26.3 19.7 4.1 24 11.3 E 28 37 15 20 - - 0.0
24/10:30am 26.1 20.6 4.0 24 11.2 ENE 22 30 12 16 - - 0.0
24/10:00am 24.2 18.2 3.5 26 10.2 ENE 24 32 13 17 - - 0.0
24/09:30am 23.0 18.1 4.0 29 9.4 ENE 19 28 10 15 - - 0.0
24/09:00am 20.9 15.8 4.0 33 8.3 ENE 20 26 11 14 - - 0.0
24/08:30am 19.4 14.3 4.0 36 7.4 ENE 20 28 11 15 - - 0.0
24/08:00am 17.6 12.5 4.2 41 6.4 E 20 28 11 15 - - 0.0
24/07:30am 16.5 11.0 3.9 43 5.9 E 22 28 12 15 - - 0.0
24/07:00am 15.7 11.2 4.1 46 5.5 E 17 24 9 13 - - 0.0
24/06:30am 14.4 9.9 4.1 50 4.8 E 17 22 9 12 - - 0.0
24/06:00am 14.5 9.9 3.9 49 4.9 E 17 20 9 11 - - 0.0
24/05:30am 15.5 10.6 4.3 47 5.3 ESE 19 24 10 13 - - 0.0
24/05:00am 15.5 10.6 4.3 47 5.3 ESE 19 24 10 13 - - 0.0
24/04:30am 16.2 11.3 4.3 45 5.6 E 19 24 10 13 - - 0.0
24/04:00am 16.4 11.9 4.1 44 5.8 E 17 22 9 12 - - 0.0
24/03:30am 16.9 12.0 4.3 43 6.0 ESE 19 26 10 14 - - 0.0
24/03:00am 16.9 12.0 4.3 43 6.0 ESE 19 24 10 13 - - 0.0
24/02:30am 15.6 12.0 4.9 49 5.1 SE 13 17 7 9 - - 0.0
24/02:00am 15.4 11.8 5.0 50 5.0 SE 13 19 7 10 - - 0.0
24/01:30am 14.9 11.3 5.1 52 4.7 SE 13 17 7 9 - - 0.0
24/01:00am 15.3 11.7 5.2 51 4.8 SE 13 15 7 8 - - 0.0
24/12:30am 15.3 12.3 5.8 53 4.6 SE 11 15 6 8 - - 0.0
24/12:00am 15.1 11.9 6.7 57 4.2 SE 13 17 7 9 - - 0.0
 
Date/Time
WST
Temp
°C
App
Temp
°C
Dew
Point
°C
Rel
Hum
%
Delta-T
°C
Wind Press
QNH
hPa
Press
MSL
hPa
Rain since
9am
mm
Dir  Spd
km/h
Gust
km/h
Spd
kts
Gust
kts
23/11:30pm 14.8 11.7 7.1 60 3.8 SSE 13 15 7 8 - - 0.0
23/11:00pm 15.3 11.6 7.8 61 3.8 SSE 17 19 9 10 - - 0.0
23/10:30pm 15.8 11.8 8.3 61 3.8 SSE 19 22 10 12 - - 0.0
23/10:00pm 16.1 12.0 8.6 61 3.9 SSE 20 26 11 14 - - 0.0
23/09:30pm 16.5 12.0 8.5 59 4.1 SSE 22 26 12 14 - - 0.0
23/09:00pm 16.4 12.4 8.1 58 4.3 SSE 19 22 10 12 - - 0.0
23/08:30pm 17.2 13.0 8.1 55 4.7 S 20 24 11 13 - - 0.0
23/08:00pm 17.7 13.4 6.9 49 5.5 S 19 24 10 13 - - 0.0
23/07:30pm 19.0 14.3 6.2 43 6.4 S 20 26 11 14 - - 0.0
23/07:00pm 19.3 14.7 5.4 40 6.9 S 19 22 10 12 - - 0.0
23/06:30pm 19.2 15.1 4.6 38 7.1 S 15 19 8 10 - - 0.0
23/06:00pm 21.0 17.1 1.3 27 9.1 SE 11 15 6 8 - - 0.0
23/05:30pm 24.2 19.9 1.2 22 10.9 SE 13 17 7 9 - - 0.0
23/05:00pm 25.1 20.0 0.6 20 11.6 SE 17 24 9 13 - - 0.0
23/04:30pm 26.5 21.8 1.0 19 12.2 SE 15 24 8 13 - - 0.0
23/04:00pm 26.8 21.9 -0.3 17 12.7 ESE 15 24 8 13 - - 0.0
23/03:30pm 26.7 22.4 1.2 19 12.3 ESE 13 26 7 14 - - 0.0
23/03:00pm 26.7 21.7 1.2 19 12.3 ESE 17 30 9 16 - - 0.0
23/02:30pm 26.1 21.8 0.7 19 12.1 SE 13 24 7 13 - - 0.0
23/02:00pm 26.9 22.3 1.3 19 12.4 SE 15 24 8 13 - - 0.0
23/01:30pm 26.5 21.8 1.0 19 12.2 ESE 15 24 8 13 - - 0.0
23/01:00pm 26.0 22.6 2.0 21 11.7 ESE 9 20 5 11 - - 0.0
23/12:30pm 25.8 22.4 1.8 21 11.6 E 9 20 5 11 - - 0.0
23/12:00pm 25.1 21.0 2.5 23 11.0 ESE 13 24 7 13 - - 0.0
23/11:30am 24.8 20.7 2.3 23 10.9 E 13 22 7 12 - - 0.0
23/11:00am 24.0 19.9 2.2 24 10.5 ENE 13 24 7 13 - - 0.0
23/10:30am 23.4 19.3 2.3 25 10.2 ENE 13 19 7 10 - - 0.0
23/10:00am 22.6 18.2 2.7 27 9.6 ENE 15 19 8 10 - - 0.0
23/09:30am 21.8 17.5 3.5 30 8.9 ENE 15 19 8 10 - - 0.0
23/09:00am 19.9 14.8 3.2 33 8.0 ENE 19 24 10 13 - - 0.0
23/08:30am 18.8 14.5 3.0 35 7.4 E 15 19 8 10 - - 0.0
23/08:00am 16.9 12.6 3.2 40 6.4 E 15 20 8 11 - - 0.0
23/07:30am 15.6 11.3 3.1 43 5.8 E 15 19 8 10 - - 0.0
23/07:00am 11.5 7.4 2.5 54 4.0 SE 13 15 7 8 - - 0.0
23/06:30am 14.0 9.6 2.9 47 5.0 ESE 15 19 8 10 - - 0.0
23/06:00am 13.0 8.2 2.8 50 4.6 ESE 17 19 9 10 - - 0.0
23/05:30am 11.3 6.9 2.6 55 3.8 SE 15 15 8 8 - - 0.0
23/05:00am 12.6 8.5 2.2 49 4.6 ESE 13 17 7 9 - - 0.0
23/04:30am 13.9 9.0 2.2 45 5.2 ESE 17 19 9 10 - - 0.0
23/04:00am 13.7 9.2 2.3 46 5.1 ESE 15 17 8 9 - - 0.0
23/03:30am 13.5 9.0 2.4 47 4.9 ESE 15 17 8 9 - - 0.0
23/03:00am 11.4 7.5 3.2 57 3.7 SE 13 15 7 8 - - 0.0
23/02:30am 11.8 7.8 2.8 54 4.0 SSE 13 15 7 8 - - 0.0
23/02:00am 12.8 9.3 3.5 53 4.2 SE 11 13 6 7 - - 0.0
23/01:30am 12.7 9.2 3.4 53 4.2 SSE 11 13 6 7 - - 0.0
23/01:00am 12.7 8.8 3.4 53 4.2 SSE 13 13 7 7 - - 0.0
23/12:30am 12.6 8.8 3.8 55 4.0 SSE 13 13 7 7 - - 0.0
23/12:00am 12.9 9.1 3.8 54 4.2 SSE 13 15 7 8 - - 0.0
 
Date/Time
WST
Temp
°C
App
Temp
°C
Dew
Point
°C
Rel
Hum
%
Delta-T
°C
Wind Press
QNH
hPa
Press
MSL
hPa
Rain since
9am
mm
Dir  Spd
km/h
Gust
km/h
Spd
kts
Gust
kts
22/11:30pm 13.3 9.6 4.7 56 4.0 SSE 13 15 7 8 - - 0.0
22/11:00pm 12.9 9.2 4.6 57 3.9 SSE 13 17 7 9 - - 0.0
22/10:30pm 14.3 10.3 5.1 54 4.4 SSE 15 19 8 10 - - 0.0
22/10:00pm 13.8 9.8 4.7 54 4.3 SSE 15 17 8 9 - - 0.0
22/09:30pm 14.2 9.8 4.8 53 4.4 SSE 17 19 9 10 - - 0.0
22/09:00pm 14.8 10.4 4.8 51 4.7 SSE 17 20 9 11 - - 0.0
22/08:30pm 15.0 10.2 4.4 49 5.0 SSE 19 22 10 12 - - 0.0
22/08:00pm 15.6 11.1 4.3 47 5.3 SSE 17 19 9 10 - - 0.0
22/07:30pm 16.8 11.8 3.8 42 6.1 S 19 20 10 11 - - 0.0
22/07:00pm 17.1 12.1 3.4 40 6.4 S 19 22 10 12 - - 0.0
22/06:30pm 15.4 11.7 0.0 35 6.6 SSE 9 15 5 8 - - 0.0
22/06:00pm 19.3 15.2 -0.1 27 8.6 SE 11 15 6 8 - - 0.0
22/05:30pm 22.5 18.9 0.4 23 10.2 ESE 9 13 5 7 - - 0.0
22/05:00pm 23.9 19.5 0.3 21 11.0 SE 13 17 7 9 - - 0.0
22/04:30pm 24.4 20.3 0.0 20 11.3 SE 11 17 6 9 - - 0.0
22/04:00pm 24.8 21.2 0.3 20 11.5 E 9 20 5 11 - - 0.0
22/03:30pm 24.6 21.4 -0.5 19 11.6 SE 6 13 3 7 - - 0.0
22/03:00pm 24.8 21.5 0.3 20 11.5 E 7 17 4 9 - - 0.0
22/02:30pm 24.9 21.3 0.4 20 11.5 E 9 17 5 9 - - 0.0
22/02:00pm 24.1 21.0 0.4 21 11.1 SE 6 11 3 6 - - 0.0
22/01:30pm 24.3 20.7 0.6 21 11.1 E 9 15 5 8 - - 0.0
22/01:00pm 23.4 20.1 -0.1 21 10.8 NNE 7 15 4 8 - - 0.0
22/12:30pm 22.8 18.7 0.0 22 10.5 NNE 11 19 6 10 - - 0.0
22/12:00pm 23.3 19.1 1.6 24 10.3 NE 13 22 7 12 - - 0.0
22/11:30am 22.2 16.8 1.3 25 9.8 NNE 19 28 10 15 - - 0.0
22/11:00am 21.7 15.8 1.4 26 9.5 NNE 22 33 12 18 - - 0.0
22/10:30am 21.3 15.5 2.1 28 9.1 NNE 22 33 12 18 - - 0.0
22/10:00am 19.9 13.6 1.4 29 8.5 NNE 24 32 13 17 - - 0.0
22/09:30am 19.0 11.9 1.5 31 8.0 NNE 28 35 15 19 - - 0.0
22/09:00am 17.7 11.5 2.1 35 7.2 NE 24 33 13 18 - - 0.0
22/08:30am 16.1 10.0 2.9 41 6.1 NE 24 32 13 17 - - 0.0
22/08:00am 14.8 9.5 3.0 45 5.4 NE 20 28 11 15 - - 0.0
22/07:30am 13.7 8.4 3.2 49 4.8 ENE 20 24 11 13 - - 0.0
22/07:00am 12.5 7.2 3.2 53 4.2 ENE 20 26 11 14 - - 0.0
22/06:30am 11.5 6.4 2.8 55 3.8 ENE 19 22 10 12 - - 0.0
22/06:00am 11.4 7.0 2.7 55 3.8 ENE 15 19 8 10 - - 0.0
22/05:30am 12.0 7.3 3.0 54 4.0 ENE 17 20 9 11 - - 0.0
22/05:00am 12.0 7.6 2.7 53 4.1 ENE 15 20 8 11 - - 0.0
22/04:30am 11.7 6.5 2.7 54 4.0 ENE 19 20 10 11 - - 0.0
22/04:00am 11.3 7.3 2.6 55 3.8 ENE 13 17 7 9 - - 0.0
22/03:30am 11.1 7.4 2.4 55 3.8 NE 11 13 6 7 - - 0.0
22/03:00am 11.2 7.9 2.2 54 3.9 ENE 9 13 5 7 - - 0.0
22/02:30am 12.2 8.5 2.4 51 4.3 ENE 11 13 6 7 - - 0.0
22/02:00am 12.0 8.2 1.9 50 4.4 E 11 13 6 7 - - 0.0
22/01:30am 12.9 8.0 1.9 47 4.8 ENE 17 20 9 11 - - 0.0
22/01:00am 13.4 8.5 2.0 46 5.0 E 17 20 9 11 - - 0.0
22/12:30am 13.4 8.5 1.7 45 5.1 E 17 20 9 11 - - 0.0
22/12:00am 14.0 8.7 1.6 43 5.5 E 19 22 10 12 - - 0.0
 
Date/Time
WST
Temp
°C
App
Temp
°C
Dew
Point
°C
Rel
Hum
%
Delta-T
°C
Wind Press
QNH
hPa
Press
MSL
hPa
Rain since
9am
mm
Dir  Spd
km/h
Gust
km/h
Spd
kts
Gust
kts
21/11:30pm 14.3 9.6 1.2 41 5.7 ENE 15 20 8 11 - - 0.0
21/11:00pm 14.7 9.2 0.9 39 6.0 E 19 26 10 14 - - 0.0
21/10:30pm 15.1 9.5 0.9 38 6.2 E 20 28 11 15 - - 0.0
21/10:00pm 15.4 9.9 0.4 36 6.5 E 19 26 10 14 - - 0.0
21/09:30pm 15.3 10.2 0.7 37 6.4 ESE 17 22 9 12 - - 0.0
21/09:00pm 15.6 10.9 0.6 36 6.6 ESE 15 20 8 11 - - 0.0
21/08:30pm 15.6 10.8 0.2 35 6.7 ESE 15 22 8 12 - - 0.0
21/08:00pm 15.8 11.0 0.0 34 6.8 ESE 15 19 8 10 - - 0.0
21/07:30pm 15.8 11.0 0.0 34 6.8 ESE 15 17 8 9 - - 0.0
21/07:00pm 15.9 11.5 0.1 34 6.8 ESE 13 15 7 8 - - 0.0
21/06:30pm 17.0 12.5 -0.2 31 7.5 ESE 13 17 7 9 - - 0.0
21/06:00pm 18.1 13.2 -0.2 29 8.0 ESE 15 19 8 10 - - 0.0
21/05:30pm 19.7 13.9 -0.3 26 8.9 E 20 28 11 15 - - 0.0
21/05:00pm 20.5 14.6 -0.7 24 9.4 E 20 28 11 15 - - 0.0
21/04:30pm 21.1 14.8 -0.8 23 9.8 E 22 30 12 16 - - 0.0

Other formats

Comma delimited format used in spreadsheet applications
http://www.bom.gov.au/fwo/IDW60801/IDW60801.94603.axf

JavaScript Object Notation format (JSON) in row-major order
http://www.bom.gov.au/fwo/IDW60801/IDW60801.94603.json

Data quality

Most of these data are generated automatically and are frequently updated. Quality checks on data are not normally performed. It is possible for incorrect values to appear. Refer to information at About Latest Weather Observations and please check the disclaimer before using these data.